Time;durP1;ratioP1;P1;durP2;ratioP2;P2;SDS_P1;SDS_P2;PMS_P1;PMS_P2;Temp;Humidity;BMP_temperature;BMP_pressure;BME280_temperature;BME280_humidity;BME280_pressure;Samples;Min_cycle;Max_cycle;Signal;HPM_P1;HPM_P2
2021/05/06 00:32:55;;;;;;;;;;;;;;;12.44;57.81;98440.59;129666;1102;22619;-68
2021/05/06 00:35:26;;;;;;;5.20;1.80;;;;;;;12.38;58.12;98442.61;129705;1100;21350;-70
2021/05/06 00:38:44;;;;;;;7.80;1.90;;;;;;;12.34;58.28;98445.12;129899;1101;22736;-68
2021/05/06 00:46:31;;;;;;;6.73;2.10;;;;;;;12.24;58.18;98430.80;130412;1097;22635;-68
2021/05/06 01:05:53;;;;;;;5.18;2.00;;;;;;;12.14;58.23;98418.09;130339;1098;22523;-68
2021/05/06 01:13:01;;;;;;;7.58;1.78;;;;;;;12.06;58.21;98410.58;130319;1098;22563;-71
2021/05/06 01:15:29;;;;;;;3.13;1.73;;;;;;;12.04;58.10;98416.33;130353;1097;22568;-71
2021/05/06 01:17:57;;;;;;;3.03;1.78;;;;;;;12.02;58.06;98407.61;130291;1098;22546;-70
2021/05/06 01:20:27;;;;;;;1.75;1.40;;;;;;;11.99;58.15;98413.66;130350;1097;22600;-71
2021/05/06 01:22:55;;;;;;;5.38;2.48;;;;;;;11.96;58.18;98406.08;130371;1098;22549;-71
2021/05/06 01:25:22;;;;;;;3.33;2.08;;;;;;;11.94;58.05;98412.94;130353;1098;23630;-68
2021/05/06 01:28:02;;;;;;;3.38;1.75;;;;;;;11.91;58.20;98411.59;130338;1098;22610;-68
2021/05/06 01:30:45;;;;;;;5.73;2.35;;;;;;;11.87;57.59;98409.73;130401;1098;22503;-69
2021/05/06 01:33:24;;;;;;;1.98;1.55;;;;;;;11.88;58.24;98406.72;130369;1098;22523;-69
2021/05/06 01:36:02;;;;;;;4.40;1.77;;;;;;;11.88;58.15;98408.63;130370;1098;22980;-69
2021/05/06 01:41:42;;;;;;;3.33;1.50;;;;;;;11.85;58.17;98396.38;130333;1098;22493;-68
2021/05/06 01:44:16;;;;;;;6.90;1.83;;;;;;;11.83;58.12;98395.08;130352;1098;23310;-68
2021/05/06 01:47:02;;;;;;;3.35;1.45;;;;;;;11.82;57.97;98385.27;130352;1098;22682;-68
2021/05/06 02:00:31;;;;;;;2.98;1.60;;;;;;;11.83;57.52;98384.94;130312;1098;23473;-70
2021/05/06 02:03:19;;;;;;;4.63;1.88;;;;;;;11.81;57.25;98378.99;130381;1098;22616;-70
2021/05/06 02:05:50;;;;;;;7.43;2.15;;;;;;;11.80;57.39;98380.09;130327;1098;23571;-70
2021/05/06 02:08:20;;;;;;;4.95;2.05;;;;;;;11.78;57.38;98382.30;130342;1098;22555;-70
2021/05/06 02:10:55;;;;;;;5.50;1.80;;;;;;;11.75;57.68;98373.85;130304;1098;23624;-70
2021/05/06 02:13:39;;;;;;;4.97;1.60;;;;;;;11.75;57.38;98363.75;130395;1098;22558;-70
2021/05/06 02:16:16;;;;;;;5.70;1.75;;;;;;;11.75;57.47;98368.39;130294;1098;23373;-70
2021/05/06 02:18:45;;;;;;;6.63;1.83;;;;;;;11.73;57.77;98371.41;130326;1098;22556;-70
2021/05/06 02:21:18;;;;;;;6.70;1.73;;;;;;;11.67;57.94;98365.23;130323;1098;23440;-69
2021/05/06 02:23:53;;;;;;;7.43;1.75;;;;;;;11.63;57.86;98375.09;130295;1098;22523;-69
2021/05/06 02:26:21;;;;;;;3.45;1.90;;;;;;;11.59;58.32;98375.97;130308;1097;22518;-69
2021/05/06 02:28:49;;;;;;;3.05;1.60;;;;;;;11.54;58.17;98370.59;130371;1098;22500;-69
2021/05/06 02:31:17;;;;;;;4.18;1.88;;;;;;;11.53;58.40;98369.78;130340;1097;23299;-69
2021/05/06 02:33:45;;;;;;;2.88;1.55;;;;;;;11.50;58.45;98369.55;130342;1098;22578;-68
2021/05/06 02:36:13;;;;;;;4.58;2.00;;;;;;;11.46;58.60;98374.77;130352;1097;22531;-69
2021/05/06 02:38:41;;;;;;;2.30;1.60;;;;;;;11.46;58.65;98382.95;130391;1098;23283;-69
2021/05/06 02:41:09;;;;;;;5.43;1.87;;;;;;;11.43;58.62;98383.53;130330;1098;22552;-69
2021/05/06 02:43:37;;;;;;;4.45;1.68;;;;;;;11.39;58.98;98379.78;130360;1097;22499;-70
2021/05/06 02:46:05;;;;;;;4.63;1.70;;;;;;;11.33;58.91;98370.83;130294;1097;22556;-70
2021/05/06 02:48:35;;;;;;;5.20;2.15;;;;;;;11.28;59.09;98361.89;130378;1097;22537;-70
2021/05/06 02:51:05;;;;;;;5.48;1.70;;;;;;;11.26;59.57;98375.00;130330;1098;22556;-68
2021/05/06 02:53:38;;;;;;;3.50;2.10;;;;;;;11.24;59.65;98366.32;130392;1098;23658;-68
2021/05/06 03:04:08;;;;;;;4.33;1.87;;;;;;;11.11;60.24;98373.25;130388;1098;23358;-68
2021/05/06 03:06:59;;;;;;;3.95;1.65;;;;;;;11.08;60.45;98376.58;127665;1098;22747;-63
2021/05/06 03:22:51;;;;;;;4.60;2.10;;;;;;;11.16;61.38;98370.48;130330;1098;22544;-64
2021/05/06 03:25:20;;;;;;;5.35;2.38;;;;;;;11.21;61.12;98380.53;130366;1098;22541;-63
2021/05/06 03:27:54;;;;;;;3.83;1.78;;;;;;;11.25;61.13;98379.64;130311;1098;22557;-64
2021/05/06 03:36:00;;;;;;;;;;;;;;;11.27;61.33;98393.80;130393;1098;22542;-64
2021/05/06 04:15:03;;;;;;;9.83;2.60;;;;;;;11.71;61.09;98444.56;129906;1100;22711;-63
2021/05/06 04:36:54;;;;;;;7.68;2.93;;;;;;;12.02;60.17;98450.48;129696;1101;23145;-64
2021/05/06 04:39:33;;;;;;;9.40;2.50;;;;;;;12.02;60.26;98453.20;130024;1101;22647;-63
2021/05/06 05:06:43;;;;;;;12.40;2.48;;;;;;;12.26;60.76;98462.15;129945;1101;22588;-63
2021/05/06 05:20:07;;;;;;;4.30;2.10;;;;;;;12.39;60.56;98486.02;125225;1101;22727;-60
2021/05/06 05:28:01;;;;;;;8.40;2.55;;;;;;;12.47;60.63;98491.92;129760;1101;22580;-62
2021/05/06 05:30:30;;;;;;;24.63;3.10;;;;;;;12.49;60.69;98495.17;129888;1101;22601;-62
2021/05/06 05:33:14;;;;;;;11.83;2.30;;;;;;;12.50;60.03;98489.41;129857;1101;22594;-62
2021/05/06 05:46:45;;;;;;;6.90;2.53;;;;;;;12.45;60.51;98499.59;129622;1104;22838;-62
2021/05/06 05:56:51;;;;;;;9.10;2.65;;;;;;;12.50;61.07;98524.13;129954;1101;22585;-62
2021/05/06 05:59:19;;;;;;;7.75;2.95;;;;;;;12.52;61.07;98525.45;129648;1102;22554;-61
2021/05/06 06:01:50;;;;;;;6.85;2.60;;;;;;;12.54;61.31;98527.89;129904;1101;22555;-62
2021/05/06 06:04:18;;;;;;;8.95;2.90;;;;;;;12.54;61.13;98525.98;129860;1101;22543;-62
2021/05/06 06:06:46;;;;;;;11.88;2.78;;;;;;;12.55;61.18;98530.30;129886;1101;22537;-62
2021/05/06 06:09:14;;;;;;;7.68;3.58;;;;;;;12.58;61.52;98534.38;129650;1103;22540;-61
2021/05/06 06:11:41;;;;;;;10.70;2.60;;;;;;;12.61;61.74;98539.25;129894;1101;22653;-62
2021/05/06 06:14:10;;;;;;;17.15;3.23;;;;;;;12.63;61.42;98535.13;129855;1101;23041;-62
2021/05/06 06:16:41;;;;;;;11.58;3.33;;;;;;;12.69;61.79;98535.88;129638;1104;22582;-62
2021/05/06 06:19:09;;;;;;;9.83;3.50;;;;;;;12.72;61.86;98548.92;129785;1101;22583;-62
2021/05/06 06:24:06;;;;;;;6.95;2.90;;;;;;;12.80;61.77;98558.39;129621;1104;22566;-62
2021/05/06 06:26:34;;;;;;;7.85;2.83;;;;;;;12.83;62.02;98566.83;129668;1102;22664;-62
2021/05/06 06:29:07;;;;;;;10.18;3.53;;;;;;;12.87;61.80;98569.76;129703;1104;22563;-60
2021/05/06 06:31:41;;;;;;;14.13;3.48;;;;;;;12.91;61.64;98568.88;129631;1104;22565;-62
2021/05/06 06:34:09;;;;;;;14.53;4.13;;;;;;;12.94;61.89;98571.03;129969;1101;22550;-62
2021/05/06 06:36:39;;;;;;;10.38;3.50;;;;;;;12.97;61.77;98573.17;129893;1101;22631;-62
2021/05/06 06:39:07;;;;;;;14.38;3.95;;;;;;;13.01;62.02;98576.10;129936;1101;22691;-62
2021/05/06 06:41:35;;;;;;;9.93;4.18;;;;;;;13.03;61.70;98577.44;129651;1101;23550;-62
2021/05/06 06:44:04;;;;;;;12.60;3.63;;;;;;;13.06;62.07;98586.98;129897;1101;22565;-62
2021/05/06 06:46:32;;;;;;;9.55;3.43;;;;;;;13.07;62.11;98578.48;129901;1101;23269;-62
2021/05/06 06:49:02;;;;;;;8.50;3.95;;;;;;;13.09;62.10;98589.13;129694;1101;22565;-62
2021/05/06 06:51:31;;;;;;;12.15;5.43;;;;;;;13.07;62.19;98597.63;129887;1101;22655;-62
2021/05/06 06:53:59;;;;;;;15.18;4.03;;;;;;;13.07;62.91;98607.74;129768;1101;24165;-62
2021/05/06 06:56:26;;;;;;;11.90;4.93;;;;;;;13.04;63.58;98617.34;127517;1101;22776;-61
2021/05/06 06:58:54;;;;;;;12.00;4.85;;;;;;;13.03;64.69;98620.38;125464;1096;27154;-62
2021/05/06 07:01:27;;;;;;;12.70;4.35;;;;;;;13.01;65.16;98623.41;125202;1097;22813;-61
2021/05/06 07:03:55;;;;;;;27.15;5.03;;;;;;;12.98;65.70;98615.81;129900;1101;22601;-62
2021/05/06 07:06:23;;;;;;;7.15;4.25;;;;;;;12.95;65.56;98634.73;129837;1101;22549;-64
2021/05/06 07:08:51;;;;;;;8.30;4.20;;;;;;;12.86;65.94;98628.27;129880;1101;23099;-62
2021/05/06 07:11:18;;;;;;;7.80;4.85;;;;;;;12.81;66.37;98623.70;129606;1103;22566;-62
2021/05/06 07:13:47;;;;;;;6.35;3.45;;;;;;;12.77;66.75;98617.20;129627;1104;22724;-62
2021/05/06 07:16:14;;;;;;;5.55;2.98;;;;;;;12.72;66.41;98622.72;129887;1101;22620;-62
2021/05/06 07:18:44;;;;;;;9.20;3.55;;;;;;;12.64;66.50;98629.67;129881;1101;22543;-62
2021/05/06 07:21:12;;;;;;;4.43;2.88;;;;;;;12.58;67.40;98644.48;129904;1101;22591;-62
2021/05/06 07:23:40;;;;;;;3.10;2.25;;;;;;;12.54;67.63;98653.59;129681;1103;22501;-62
2021/05/06 07:26:11;;;;;;;6.90;2.63;;;;;;;12.52;68.03;98663.98;129879;1101;24777;-62
2021/05/06 07:28:41;;;;;;;4.05;2.78;;;;;;;12.46;68.45;98671.42;129550;1103;22696;-62
2021/05/06 07:31:13;;;;;;;4.45;2.30;;;;;;;12.36;68.38;98675.09;129869;1101;22667;-62
2021/05/06 07:33:49;;;;;;;4.65;1.70;;;;;;;12.26;67.92;98683.38;129825;1101;22598;-62
2021/05/06 07:36:20;;;;;;;4.75;2.78;;;;;;;12.17;68.35;98693.31;129670;1101;22608;-62
2021/05/06 07:38:53;;;;;;;6.38;1.70;;;;;;;12.11;68.07;98712.78;129863;1101;22645;-62
2021/05/06 07:41:23;;;;;;;2.30;1.53;;;;;;;12.01;67.93;98700.83;129720;1104;22741;-63
2021/05/06 07:43:55;;;;;;;3.15;1.60;;;;;;;11.94;67.46;98699.55;129884;1101;23230;-62
2021/05/06 07:46:26;;;;;;;3.20;1.30;;;;;;;11.88;67.64;98697.95;129684;1104;22760;-62
2021/05/06 07:48:58;;;;;;;1.45;1.15;;;;;;;11.83;67.78;98714.39;129717;1104;22731;-62
2021/05/06 07:51:30;;;;;;;1.48;1.08;;;;;;;11.77;68.26;98715.52;129616;1102;22833;-62
2021/05/06 07:54:05;;;;;;;1.60;1.25;;;;;;;11.73;68.33;98731.61;129783;1101;22982;-62
2021/05/06 07:56:40;;;;;;;2.68;1.43;;;;;;;11.70;69.02;98732.18;129920;1101;22481;-62
2021/05/06 07:59:08;;;;;;;1.68;0.98;;;;;;;11.65;68.20;98743.97;129872;1101;22646;-62
2021/05/06 08:01:36;;;;;;;8.05;1.60;;;;;;;11.60;68.30;98734.99;129936;1101;22628;-61
2021/05/06 08:04:04;;;;;;;3.50;1.55;;;;;;;11.59;68.45;98736.91;129699;1104;22666;-63
2021/05/06 08:06:34;;;;;;;2.83;2.08;;;;;;;11.59;68.58;98728.72;129961;1101;22597;-64
2021/05/06 08:09:03;;;;;;;3.88;1.75;;;;;;;11.63;68.54;98731.70;129959;1101;22519;-63
2021/05/06 08:11:31;;;;;;;2.63;1.80;;;;;;;11.65;68.49;98733.05;129955;1101;22540;-63
2021/05/06 08:13:59;;;;;;;6.85;1.95;;;;;;;11.68;67.56;98732.48;129665;1104;23603;-63
2021/05/06 08:16:27;;;;;;;3.63;2.38;;;;;;;11.69;67.36;98730.55;129865;1101;22549;-63
2021/05/06 08:18:54;;;;;;;4.70;3.25;;;;;;;11.72;67.44;98738.17;129631;1104;22595;-64
2021/05/06 08:21:24;;;;;;;6.48;4.13;;;;;;;11.77;67.51;98735.45;129953;1101;22630;-63
2021/05/06 08:23:52;;;;;;;1.73;1.40;;;;;;;11.79;66.28;98738.71;129832;1101;22667;-63
2021/05/06 08:26:20;;;;;;;4.40;1.93;;;;;;;11.80;65.60;98751.25;129861;1101;22568;-64
2021/05/06 08:28:52;;;;;;;3.95;2.00;;;;;;;11.81;65.73;98755.62;129936;1101;22589;-63
2021/05/06 08:31:20;;;;;;;3.50;1.70;;;;;;;11.87;65.93;98770.02;129674;1104;23396;-63
2021/05/06 08:34:07;;;;;;;2.55;1.50;;;;;;;11.89;65.39;98782.29;129653;1104;22579;-62
2021/05/06 08:36:35;;;;;;;3.78;1.95;;;;;;;11.89;64.80;98782.29;129734;1101;23385;-62
2021/05/06 08:39:04;;;;;;;5.70;1.93;;;;;;;11.92;64.95;98775.45;129940;1101;22543;-62
2021/05/06 08:41:33;;;;;;;5.15;1.83;;;;;;;11.91;65.08;98784.74;129697;1101;23582;-62
2021/05/06 08:44:04;;;;;;;5.80;2.48;;;;;;;11.92;65.47;98789.92;129913;1101;23088;-63
2021/05/06 08:46:34;;;;;;;4.45;2.20;;;;;;;11.97;65.67;98789.08;129706;1104;22732;-62
2021/05/06 08:49:04;;;;;;;3.88;2.20;;;;;;;12.03;65.85;98793.38;129721;1101;22578;-62
2021/05/06 08:51:33;;;;;;;3.75;1.83;;;;;;;12.09;65.13;98803.17;129685;1104;23638;-63
2021/05/06 08:54:02;;;;;;;2.85;1.65;;;;;;;12.12;64.25;98805.31;129744;1101;22540;-62
2021/05/06 08:56:32;;;;;;;2.30;1.60;;;;;;;12.13;64.17;98812.40;129909;1101;23677;-63
2021/05/06 08:59:00;;;;;;;4.03;2.05;;;;;;;12.14;64.19;98816.77;129933;1101;23590;-63
2021/05/06 09:01:28;;;;;;;5.08;1.70;;;;;;;12.17;63.35;98810.73;129881;1101;22751;-63
2021/05/06 09:03:56;;;;;;;4.40;2.00;;;;;;;12.19;64.01;98813.19;129946;1101;22589;-63
2021/05/06 09:06:24;;;;;;;3.03;2.03;;;;;;;12.22;64.76;98799.78;129913;1101;22548;-63
2021/05/06 09:08:56;;;;;;;2.70;1.70;;;;;;;12.31;64.75;98800.78;129914;1101;22554;-62
2021/05/06 09:11:31;;;;;;;3.03;2.00;;;;;;;12.44;63.99;98809.41;129594;1104;23590;-62
2021/05/06 09:14:07;;;;;;;6.95;2.15;;;;;;;12.54;63.15;98806.60;129884;1101;22723;-62
2021/05/06 09:16:40;;;;;;;3.10;1.73;;;;;;;12.67;62.94;98800.45;129852;1101;22533;-62
2021/05/06 09:19:13;;;;;;;2.53;1.43;;;;;;;12.79;62.70;98800.87;129866;1101;22794;-63
2021/05/06 09:21:42;;;;;;;2.88;1.50;;;;;;;12.92;62.35;98802.09;129901;1101;22997;-62
2021/05/06 09:24:22;;;;;;;2.28;1.30;;;;;;;13.06;61.90;98803.02;129678;1104;22580;-62
2021/05/06 09:26:55;;;;;;;1.70;1.30;;;;;;;13.21;61.93;98807.52;129863;1101;22545;-62
2021/05/06 09:29:35;;;;;;;2.58;1.65;;;;;;;13.37;60.80;98817.98;130004;1101;22662;-62
2021/05/06 09:32:07;;;;;;;8.00;1.58;;;;;;;13.52;57.53;98807.95;129910;1101;22634;-63
2021/05/06 09:34:36;;;;;;;3.98;1.53;;;;;;;13.62;58.80;98816.00;129701;1101;22544;-64
2021/05/06 09:37:07;;;;;;;1.88;1.50;;;;;;;13.74;57.54;98816.38;129907;1101;22673;-63
2021/05/06 09:39:36;;;;;;;1.63;1.15;;;;;;;13.86;56.12;98826.88;129905;1101;23080;-63
2021/05/06 09:42:13;;;;;;;1.93;1.60;;;;;;;13.94;55.48;98826.23;129845;1101;22615;-63
2021/05/06 09:44:52;;;;;;;1.95;1.33;;;;;;;13.98;54.79;98825.34;129635;1102;22628;-63
2021/05/06 09:47:24;;;;;;;2.98;1.43;;;;;;;14.00;53.60;98831.31;129861;1101;23424;-62
2021/05/06 09:49:53;;;;;;;2.23;1.58;;;;;;;13.93;52.47;98821.86;129904;1101;22623;-63
2021/05/06 09:52:21;;;;;;;2.55;1.88;;;;;;;13.83;54.65;98822.02;129648;1101;22544;-63
2021/05/06 09:54:53;;;;;;;2.63;1.83;;;;;;;13.84;54.53;98829.13;129720;1101;23016;-63
2021/05/06 09:57:28;;;;;;;1.98;1.45;;;;;;;13.89;53.74;98829.03;129781;1101;22523;-63
2021/05/06 10:00:14;;;;;;;6.88;2.20;;;;;;;13.94;55.00;98834.45;129942;1101;23404;-63
2021/05/06 10:02:42;;;;;;;5.50;1.95;;;;;;;14.04;54.38;98832.36;129665;1104;22568;-63
2021/05/06 10:05:22;;;;;;;3.50;1.98;;;;;;;14.10;52.94;98842.14;129977;1101;22680;-59
2021/05/06 10:07:53;;;;;;;7.10;2.17;;;;;;;14.14;53.01;98850.55;129640;1101;22599;-59
2021/05/06 10:10:24;;;;;;;4.78;1.83;;;;;;;14.18;53.39;98842.55;129893;1101;22530;-59
2021/05/06 10:12:52;;;;;;;2.60;1.70;;;;;;;14.25;52.08;98854.78;129899;1101;22703;-59
2021/05/06 10:15:20;;;;;;;5.45;1.40;;;;;;;14.29;51.25;98852.23;129712;1102;22577;-59
2021/05/06 10:17:49;;;;;;;3.88;2.00;;;;;;;14.30;51.14;98856.61;129852;1101;22547;-59
2021/05/06 10:20:17;;;;;;;2.63;1.68;;;;;;;14.28;50.16;98851.45;129887;1101;22551;-59
2021/05/06 10:22:45;;;;;;;3.30;2.18;;;;;;;14.24;50.65;98858.63;129703;1104;23162;-59
2021/05/06 10:25:13;;;;;;;4.63;2.70;;;;;;;14.22;50.63;98851.81;129694;1102;23333;-60
2021/05/06 10:27:41;;;;;;;7.80;3.03;;;;;;;14.25;51.30;98856.70;129742;1101;22530;-60
2021/05/06 10:30:22;;;;;;;3.78;1.98;;;;;;;14.26;50.40;98861.89;129901;1101;22657;-60
2021/05/06 10:32:50;;;;;;;4.13;2.20;;;;;;;14.25;49.76;98865.74;129737;1104;22632;-59
2021/05/06 10:35:22;;;;;;;4.83;2.73;;;;;;;14.24;50.65;98860.55;129725;1103;22575;-63
2021/05/06 10:37:58;;;;;;;3.80;2.08;;;;;;;14.23;50.71;98865.22;129731;1102;22635;-63
2021/05/06 10:40:35;;;;;;;4.68;1.90;;;;;;;14.23;50.64;98865.22;129902;1101;22630;-63
2021/05/06 10:43:19;;;;;;;3.58;1.60;;;;;;;14.23;49.92;98870.70;129851;1101;22534;-62
2021/05/06 10:46:03;;;;;;;4.48;1.80;;;;;;;14.24;49.59;98871.52;129881;1101;23347;-62
2021/05/06 10:49:02;;;;;;;2.35;1.80;;;;;;;14.25;49.79;98876.70;129888;1101;22567;-62
2021/05/06 10:51:40;;;;;;;4.60;1.95;;;;;;;14.26;49.48;98877.52;129925;1101;22569;-63
2021/05/06 10:54:29;;;;;;;2.98;1.85;;;;;;;14.26;49.56;98869.30;130001;1101;22691;-63
2021/05/06 10:56:58;;;;;;;3.30;1.88;;;;;;;14.34;48.75;98874.91;130017;1101;22528;-63
2021/05/06 10:59:31;;;;;;;2.23;1.60;;;;;;;14.39;47.25;98876.76;130040;1101;22652;-62
2021/05/06 11:01:59;;;;;;;5.00;1.90;;;;;;;14.45;46.97;98875.58;130014;1101;22564;-63
2021/05/06 11:04:33;;;;;;;2.75;1.30;;;;;;;14.49;46.37;98866.47;129966;1101;22718;-64
2021/05/06 11:07:18;;;;;;;2.53;1.40;;;;;;;14.55;46.38;98874.62;129946;1101;22654;-60
2021/05/06 11:09:49;;;;;;;2.95;1.30;;;;;;;14.60;47.09;98860.80;129994;1101;22569;-60
2021/05/06 11:12:17;;;;;;;5.55;1.90;;;;;;;14.67;47.10;98874.95;129933;1101;22619;-61
2021/05/06 11:15:01;;;;;;;7.93;2.18;;;;;;;14.75;46.86;98871.51;130005;1101;23472;-60
2021/05/06 11:17:32;;;;;;;3.73;1.70;;;;;;;14.85;46.15;98874.09;129944;1101;22604;-61
2021/05/06 11:20:10;;;;;;;2.30;1.45;;;;;;;14.92;45.92;98874.50;129983;1101;22566;-60
2021/05/06 11:22:45;;;;;;;2.90;1.10;;;;;;;14.99;43.57;98874.93;129952;1101;22579;-63
2021/05/06 11:25:37;;;;;;;2.10;1.20;;;;;;;15.04;44.02;98874.81;129989;1101;23114;-63
2021/05/06 11:28:27;;;;;;;2.80;1.55;;;;;;;15.11;45.17;98877.17;129954;1101;22549;-64
2021/05/06 11:30:59;;;;;;;7.40;1.45;;;;;;;15.17;45.03;98882.25;129898;1101;22687;-64
2021/05/06 11:33:28;;;;;;;3.30;1.60;;;;;;;15.25;43.59;98879.93;129996;1101;22648;-64
2021/05/06 11:36:16;;;;;;;3.45;1.80;;;;;;;15.29;43.44;98869.98;130001;1101;22622;-63
2021/05/06 11:39:07;;;;;;;3.38;1.30;;;;;;;15.34;43.19;98887.14;129948;1101;23069;-62
2021/05/06 11:41:35;;;;;;;3.40;1.30;;;;;;;15.35;42.73;98888.77;129983;1101;22655;-63
2021/05/06 11:44:05;;;;;;;3.58;1.00;;;;;;;15.32;43.02;98897.60;130037;1101;23041;-64
2021/05/06 11:46:36;;;;;;;5.30;1.38;;;;;;;15.30;43.07;98888.05;129988;1101;23370;-63
2021/05/06 11:49:06;;;;;;;3.25;1.68;;;;;;;15.29;42.95;98895.49;130039;1101;23811;-62
2021/05/06 11:51:34;;;;;;;2.78;1.53;;;;;;;15.29;42.83;98883.70;130055;1101;22676;-63
2021/05/06 11:54:15;;;;;;;2.88;1.60;;;;;;;15.31;43.23;98892.41;130032;1101;22608;-62
2021/05/06 11:56:52;;;;;;;3.03;1.20;;;;;;;15.36;43.12;98892.33;130040;1101;22553;-63
2021/05/06 11:59:30;;;;;;;2.15;1.30;;;;;;;15.42;43.19;98889.19;130046;1101;23198;-63
2021/05/06 12:02:07;;;;;;;4.70;1.40;;;;;;;15.45;42.85;98890.48;130004;1101;22551;-64
2021/05/06 12:04:36;;;;;;;2.70;1.50;;;;;;;15.47;43.18;98883.58;130013;1101;22528;-62
2021/05/06 12:07:22;;;;;;;2.60;1.70;;;;;;;15.52;42.95;98883.48;130038;1101;22727;-63
2021/05/06 12:09:50;;;;;;;3.03;1.50;;;;;;;15.59;41.78;98887.77;130037;1101;22572;-62
2021/05/06 12:12:25;;;;;;;4.35;1.78;;;;;;;15.61;41.19;98888.28;129994;1101;22562;-63
2021/05/06 12:14:59;;;;;;;3.80;1.48;;;;;;;15.62;41.22;98885.23;130022;1101;22561;-63
2021/05/06 12:17:27;;;;;;;2.88;1.50;;;;;;;15.62;40.67;98882.48;125618;1101;25398;-62
2021/05/06 12:19:58;;;;;;;3.33;1.20;;;;;;;15.63;41.48;98880.55;125340;1093;25223;-62
2021/05/06 12:22:27;;;;;;;4.68;1.38;;;;;;;15.70;41.66;98878.22;130013;1101;22570;-62
2021/05/06 12:24:55;;;;;;;2.70;1.50;;;;;;;15.76;40.86;98876.97;130003;1101;22631;-62
2021/05/06 12:27:28;;;;;;;4.27;1.87;;;;;;;15.83;41.10;98880.13;126586;1096;26319;-62
2021/05/06 12:29:56;;;;;;;3.65;1.35;;;;;;;15.91;40.74;98882.13;130030;1101;22703;-63
2021/05/06 12:32:29;;;;;;;1.55;1.08;;;;;;;15.96;40.43;98873.79;130036;1101;22657;-63
2021/05/06 12:34:59;;;;;;;1.63;1.10;;;;;;;15.97;41.17;98878.16;129976;1101;22628;-62
2021/05/06 12:37:29;;;;;;;3.18;1.40;;;;;;;16.01;40.44;98886.61;129996;1101;22629;-62
2021/05/06 12:39:56;;;;;;;3.45;1.40;;;;;;;16.02;40.29;98893.70;129969;1101;22592;-63
2021/05/06 12:42:31;;;;;;;4.28;1.15;;;;;;;16.02;40.92;98893.70;129957;1101;22545;-62
2021/05/06 12:44:59;;;;;;;1.60;0.98;;;;;;;16.01;40.35;98884.67;129925;1101;23123;-63
2021/05/06 12:47:28;;;;;;;2.88;0.98;;;;;;;16.01;40.67;98886.61;130038;1101;22596;-63
2021/05/06 12:50:19;;;;;;;2.93;0.95;;;;;;;16.00;40.19;98884.98;130019;1101;22707;-63
2021/05/06 12:52:48;;;;;;;4.60;1.13;;;;;;;15.98;39.60;98878.98;129996;1101;22554;-63
2021/05/06 12:55:31;;;;;;;2.75;1.20;;;;;;;15.92;40.59;98883.77;129988;1101;22731;-63
2021/05/06 12:58:08;;;;;;;2.25;1.35;;;;;;;15.91;41.34;98879.39;130042;1101;23181;-63
2021/05/06 13:00:37;;;;;;;5.03;1.60;;;;;;;15.90;41.42;98884.06;129969;1101;22642;-63
2021/05/06 13:03:06;;;;;;;2.58;1.35;;;;;;;15.93;41.14;98873.59;129997;1101;22542;-63
2021/05/06 13:05:42;;;;;;;2.15;1.40;;;;;;;15.96;41.66;98870.23;129891;1101;22636;-65
2021/05/06 13:08:11;;;;;;;2.60;1.43;;;;;;;16.00;41.23;98874.80;130013;1101;22603;-66
2021/05/06 13:10:48;;;;;;;2.63;1.38;;;;;;;16.06;41.03;98867.24;129988;1101;22660;-66
2021/05/06 13:13:54;;;;;;;2.08;1.40;;;;;;;16.08;40.48;98865.00;130080;1101;23124;-65
2021/05/06 13:16:38;;;;;;;3.30;1.50;;;;;;;16.14;40.67;98863.77;130025;1101;22603;-66
2021/05/06 13:19:13;;;;;;;2.85;1.05;;;;;;;16.21;39.38;98856.70;129978;1101;22605;-66
2021/05/06 13:21:51;;;;;;;3.70;1.50;;;;;;;16.27;37.72;98862.91;129962;1101;23395;-66
2021/05/06 13:24:22;;;;;;;1.80;1.00;;;;;;;16.37;38.16;98875.59;130077;1101;22506;-65
2021/05/06 13:26:49;;;;;;;1.30;1.00;;;;;;;16.42;37.94;98869.97;129917;1101;22538;-64
2021/05/06 13:29:19;;;;;;;2.95;1.00;;;;;;;16.45;38.51;98885.83;130014;1101;22553;-63
2021/05/06 13:31:48;;;;;;;1.75;0.85;;;;;;;16.47;36.66;98873.39;130009;1101;22578;-62
2021/05/06 13:34:23;;;;;;;4.63;1.40;;;;;;;16.42;37.00;98876.29;129930;1101;22538;-62
2021/05/06 13:37:03;;;;;;;1.78;1.00;;;;;;;16.41;36.90;98871.91;130007;1101;22541;-62
2021/05/06 13:39:34;;;;;;;7.03;1.63;;;;;;;16.46;37.69;98873.70;129897;1101;22596;-60
2021/05/06 13:42:02;;;;;;;4.85;1.50;;;;;;;16.51;36.80;98874.41;129998;1101;22678;-60
2021/05/06 13:44:31;;;;;;;2.00;1.13;;;;;;;16.56;37.67;98871.54;130044;1101;25347;-59
2021/05/06 13:47:04;;;;;;;3.43;1.37;;;;;;;16.60;37.79;98872.52;126729;1101;23328;-58
2021/05/06 13:49:33;;;;;;;1.73;0.98;;;;;;;16.65;37.11;98865.30;125637;1101;22823;-59
2021/05/06 13:52:04;;;;;;;4.15;1.30;;;;;;;16.72;37.46;98876.69;125516;1101;22739;-58
2021/05/06 13:54:32;;;;;;;8.30;1.98;;;;;;;16.72;35.99;98872.00;130012;1101;23065;-60
2021/05/06 13:57:00;;;;;;;2.18;1.20;;;;;;;16.73;34.65;98875.56;130047;1101;23174;-61
2021/05/06 13:59:28;;;;;;;2.45;1.10;;;;;;;16.68;33.40;98870.99;129948;1101;23402;-60
2021/05/06 14:01:57;;;;;;;2.35;0.98;;;;;;;16.59;33.33;98876.39;130054;1101;22560;-60
2021/05/06 14:04:25;;;;;;;2.03;1.18;;;;;;;16.48;34.78;98876.95;130044;1101;23419;-60
2021/05/06 14:06:53;;;;;;;3.28;1.20;;;;;;;16.48;35.11;98874.20;130011;1101;22566;-60
2021/05/06 14:09:21;;;;;;;1.50;0.85;;;;;;;16.51;35.82;98877.16;130005;1101;22563;-60
2021/05/06 14:11:50;;;;;;;6.43;1.90;;;;;;;16.55;35.32;98878.16;129941;1101;23155;-59
2021/05/06 14:14:18;;;;;;;7.35;1.73;;;;;;;16.58;35.35;98883.05;129994;1101;22554;-63
2021/05/06 14:16:46;;;;;;;6.18;2.18;;;;;;;16.60;35.44;98880.77;129958;1101;22539;-63
2021/05/06 14:19:14;;;;;;;5.93;1.90;;;;;;;16.63;35.19;98881.30;129993;1101;23000;-63
2021/05/06 14:21:47;;;;;;;4.08;1.35;;;;;;;16.64;35.61;98883.74;129913;1101;22987;-64
2021/05/06 14:24:15;;;;;;;11.55;2.20;;;;;;;16.66;34.49;98888.93;130028;1101;22537;-64
2021/05/06 14:26:45;;;;;;;11.93;1.80;;;;;;;16.65;34.57;98888.12;129980;1101;22574;-59
2021/05/06 14:29:14;;;;;;;5.58;1.90;;;;;;;16.64;33.92;98891.99;129997;1101;22555;-59
2021/05/06 14:31:43;;;;;;;7.30;1.50;;;;;;;16.63;34.29;98889.55;129956;1101;22555;-59
2021/05/06 14:34:11;;;;;;;5.55;1.60;;;;;;;16.61;34.00;98893.39;130008;1101;22741;-58
2021/05/06 14:36:39;;;;;;;8.85;2.90;;;;;;;16.60;34.02;98883.52;129967;1101;22670;-57
2021/05/06 14:39:08;;;;;;;7.15;2.28;;;;;;;16.58;33.50;98896.80;129959;1101;22746;-58
2021/05/06 14:41:40;;;;;;;4.50;1.60;;;;;;;16.55;33.50;98893.84;129973;1101;22554;-57
2021/05/06 14:44:08;;;;;;;7.55;3.18;;;;;;;16.52;34.04;98905.47;130043;1101;23389;-57
2021/05/06 14:46:36;;;;;;;4.70;2.83;;;;;;;16.49;34.03;98900.59;129889;1102;22633;-58
2021/05/06 14:49:05;;;;;;;4.85;2.45;;;;;;;16.43;33.98;98896.34;129992;1101;22574;-57
2021/05/06 14:51:33;;;;;;;4.45;1.43;;;;;;;16.38;34.42;98904.70;129961;1101;22597;-57
2021/05/06 14:54:01;;;;;;;4.48;1.40;;;;;;;16.36;33.96;98904.20;130002;1101;23143;-57
2021/05/06 14:56:29;;;;;;;18.40;2.00;;;;;;;16.34;34.07;98898.20;129987;1101;22658;-60
2021/05/06 14:58:57;;;;;;;2.40;1.25;;;;;;;16.34;33.95;98904.51;129979;1101;22540;-60
2021/05/06 15:01:25;;;;;;;3.68;1.30;;;;;;;16.34;33.26;98903.70;130026;1101;23056;-60
2021/05/06 15:03:53;;;;;;;13.15;1.90;;;;;;;16.33;33.25;98902.88;129977;1101;22567;-60
2021/05/06 15:06:21;;;;;;;6.05;2.10;;;;;;;16.30;33.23;98914.52;130022;1101;23206;-60
2021/05/06 15:08:49;;;;;;;4.63;1.73;;;;;;;16.29;33.65;98901.90;130001;1101;22597;-60
2021/05/06 15:11:17;;;;;;;9.48;2.20;;;;;;;16.25;33.92;98900.88;130040;1101;23083;-60
2021/05/06 15:13:45;;;;;;;8.58;1.80;;;;;;;16.20;33.88;98901.80;129984;1101;23298;-60
2021/05/06 15:16:13;;;;;;;5.90;1.50;;;;;;;16.14;33.34;98902.25;130022;1101;22663;-60
2021/05/06 15:18:41;;;;;;;6.63;1.63;;;;;;;16.07;32.05;98901.84;130003;1101;23270;-60
2021/05/06 15:21:09;;;;;;;2.65;1.25;;;;;;;15.98;32.95;98910.02;130064;1101;22687;-60
2021/05/06 15:23:37;;;;;;;2.15;1.18;;;;;;;15.90;33.06;98922.53;129994;1101;22664;-60